Pagrindinis puslapis
METAR-TAF:

METAR-TAF

Oro uostai :

Čongčingas, Kinija

platuma: 29-31N, ilguma: 106-29E, Aukštis: 351 m

Dabartinis oras

Ataskaita buvo paskelbta 43 minutes, ne 16:00 UTC
Vėjas 4 kt iš Pietryčių
Temperatūra 8°C
Drėgmė 76%
Slėgis 1022 hPa
Matomumas 10 km arba daugiau
nėra debesų žemiau 1500 m ir nėra kamuolinių lietaus debesų

METAR: ZUCK 271600Z 14002MPS CAVOK 08/04 Q1022 NOSIG

Laikas: 00:43 (16:43 UTC)

Prognozė

Ataskaita buvo paskelbta 7 valandos ir 35 minutes, ne 09:08 UTC
Prognozė galioja nuo 27 metu 12 UTC su 28 metu 12 UTC
Vėjas 6 kt iš Šiaurės Rytų
Matomumas: 5000 m
Išsisklaidę debesys ne aukštis 4000 ft
rūkana

TAF: ZUCK 270908Z 2712/2812 05003MPS 5000 BR SCT040 TX12/2808Z TN06/2722Z

Orai ataskaitas ir orų prognozės (METAR, TAF).

turimą stotys yra geltonos ir raudonos taškus žemėlapyje.

Perkelti pele per norėdami pamatyti stoties vardą.

Tada spustelėkite, norėdami matyti oro stebėjimo ir prognozės.

Norėdami pakeisti žemėlapį: spustelėkite ant žalios mygtukų su juodo kryžiaus žemyn,; žalią mygtuką su brūkšneliu, jei norite nutolinti; arba žalių rodyklių gretimoms žemėlapius.


METAR-TAF: